Авиационная погода в Братске

Регион: 
Погода METAR: 
UIBB 171830Z 10003MPS 9999 SCT041 08/04 Q1012 R12/CLRD60 NOSIG RMK QFE716/0955
Время наблюдения
2021-09-17T18:30:00Z
Температура C
8.0
Точка росы
4.0
Направление ветра
100
Скорость ветра (узлы)
6
Метео видимость
6.21
Явления погоды
Условия полета
VFR
Аэропорт подробнее: